sensor_id;sensor_type;location;lat;lon;timestamp;temperature;humidity
69731;SHT31;56996;48.138;11.538;2023-08-20T00:01:19;24.48;53.33
69731;SHT31;56996;48.138;11.538;2023-08-20T00:03:51;24.43;53.54
69731;SHT31;56996;48.138;11.538;2023-08-20T00:06:19;24.38;53.67
69731;SHT31;56996;48.138;11.538;2023-08-20T00:08:47;24.35;53.80
69731;SHT31;56996;48.138;11.538;2023-08-20T00:11:15;24.31;53.89
69731;SHT31;56996;48.138;11.538;2023-08-20T00:13:42;24.29;54.02
69731;SHT31;56996;48.138;11.538;2023-08-20T00:16:10;24.24;54.17
69731;SHT31;56996;48.138;11.538;2023-08-20T00:18:37;24.20;54.28
69731;SHT31;56996;48.138;11.538;2023-08-20T00:21:05;24.17;54.37
69731;SHT31;56996;48.138;11.538;2023-08-20T00:23:33;24.13;54.46
69731;SHT31;56996;48.138;11.538;2023-08-20T00:26:02;24.10;54.54
69731;SHT31;56996;48.138;11.538;2023-08-20T00:28:29;24.05;54.66
69731;SHT31;56996;48.138;11.538;2023-08-20T00:30:56;24.02;54.78
69731;SHT31;56996;48.138;11.538;2023-08-20T00:33:23;23.97;54.91
69731;SHT31;56996;48.138;11.538;2023-08-20T00:35:49;23.95;55.03
69731;SHT31;56996;48.138;11.538;2023-08-20T00:38:17;23.90;55.11
69731;SHT31;56996;48.138;11.538;2023-08-20T00:40:44;23.89;55.17
69731;SHT31;56996;48.138;11.538;2023-08-20T00:43:10;23.86;55.31
69731;SHT31;56996;48.138;11.538;2023-08-20T00:45:40;23.83;55.46
69731;SHT31;56996;48.138;11.538;2023-08-20T00:48:07;23.80;55.60
69731;SHT31;56996;48.138;11.538;2023-08-20T00:50:37;23.76;55.69
69731;SHT31;56996;48.138;11.538;2023-08-20T00:53:06;23.75;55.82
69731;SHT31;56996;48.138;11.538;2023-08-20T00:55:36;23.73;55.93
69731;SHT31;56996;48.138;11.538;2023-08-20T00:58:03;23.69;56.03
69731;SHT31;56996;48.138;11.538;2023-08-20T01:00:32;23.67;56.09
69731;SHT31;56996;48.138;11.538;2023-08-20T01:02:58;23.66;56.12
69731;SHT31;56996;48.138;11.538;2023-08-20T01:05:25;23.64;56.13
69731;SHT31;56996;48.138;11.538;2023-08-20T01:10:38;23.63;56.10
69731;SHT31;56996;48.138;11.538;2023-08-20T01:13:15;23.61;56.24
69731;SHT31;56996;48.138;11.538;2023-08-20T01:15:42;23.60;56.32
69731;SHT31;56996;48.138;11.538;2023-08-20T01:18:10;23.58;56.35
69731;SHT31;56996;48.138;11.538;2023-08-20T01:20:39;23.57;56.45
69731;SHT31;56996;48.138;11.538;2023-08-20T01:29:30;23.54;56.67
69731;SHT31;56996;48.138;11.538;2023-08-20T01:31:58;23.52;56.78
69731;SHT31;56996;48.138;11.538;2023-08-20T01:34:25;23.48;56.85
69731;SHT31;56996;48.138;11.538;2023-08-20T01:36:53;23.45;56.97
69731;SHT31;56996;48.138;11.538;2023-08-20T01:39:19;23.44;57.08
69731;SHT31;56996;48.138;11.538;2023-08-20T01:41:46;23.42;57.18
69731;SHT31;56996;48.138;11.538;2023-08-20T01:44:13;23.40;57.26
69731;SHT31;56996;48.138;11.538;2023-08-20T01:46:40;23.37;57.46
69731;SHT31;56996;48.138;11.538;2023-08-20T01:49:07;23.32;57.54
69731;SHT31;56996;48.138;11.538;2023-08-20T01:51:33;23.29;57.63
69731;SHT31;56996;48.138;11.538;2023-08-20T01:54:00;23.25;57.81
69731;SHT31;56996;48.138;11.538;2023-08-20T01:56:28;23.21;57.92
69731;SHT31;56996;48.138;11.538;2023-08-20T01:58:55;23.19;58.02
69731;SHT31;56996;48.138;11.538;2023-08-20T02:01:21;23.16;58.14
69731;SHT31;56996;48.138;11.538;2023-08-20T02:03:48;23.14;58.32
69731;SHT31;56996;48.138;11.538;2023-08-20T02:06:15;23.11;58.46
69731;SHT31;56996;48.138;11.538;2023-08-20T02:08:44;23.09;58.46
69731;SHT31;56996;48.138;11.538;2023-08-20T02:11:11;23.09;58.39
69731;SHT31;56996;48.138;11.538;2023-08-20T02:13:37;23.05;58.46
69731;SHT31;56996;48.138;11.538;2023-08-20T02:16:05;23.02;58.63
69731;SHT31;56996;48.138;11.538;2023-08-20T02:18:33;23.00;58.80
69731;SHT31;56996;48.138;11.538;2023-08-20T02:21:00;22.98;58.94
69731;SHT31;56996;48.138;11.538;2023-08-20T02:23:27;22.97;58.98
69731;SHT31;56996;48.138;11.538;2023-08-20T02:25:54;22.93;59.03
69731;SHT31;56996;48.138;11.538;2023-08-20T02:28:20;22.92;59.02
69731;SHT31;56996;48.138;11.538;2023-08-20T02:30:47;22.88;59.06
69731;SHT31;56996;48.138;11.538;2023-08-20T02:33:14;22.85;59.18
69731;SHT31;56996;48.138;11.538;2023-08-20T02:35:41;22.81;59.24
69731;SHT31;56996;48.138;11.538;2023-08-20T02:38:08;22.77;59.38
69731;SHT31;56996;48.138;11.538;2023-08-20T02:40:39;22.74;59.52
69731;SHT31;56996;48.138;11.538;2023-08-20T02:43:07;22.70;59.66
69731;SHT31;56996;48.138;11.538;2023-08-20T02:45:41;22.68;59.78
69731;SHT31;56996;48.138;11.538;2023-08-20T02:48:09;22.66;59.92
69731;SHT31;56996;48.138;11.538;2023-08-20T02:50:37;22.65;60.05
69731;SHT31;56996;48.138;11.538;2023-08-20T02:53:04;22.60;60.13
69731;SHT31;56996;48.138;11.538;2023-08-20T02:55:31;22.57;60.24
69731;SHT31;56996;48.138;11.538;2023-08-20T02:57:59;22.54;60.30
69731;SHT31;56996;48.138;11.538;2023-08-20T03:00:26;22.52;60.39
69731;SHT31;56996;48.138;11.538;2023-08-20T03:02:54;22.50;60.46
69731;SHT31;56996;48.138;11.538;2023-08-20T03:05:21;22.47;60.50
69731;SHT31;56996;48.138;11.538;2023-08-20T03:07:48;22.46;60.59
69731;SHT31;56996;48.138;11.538;2023-08-20T03:10:15;22.45;60.70
69731;SHT31;56996;48.138;11.538;2023-08-20T03:12:42;22.43;60.78
69731;SHT31;56996;48.138;11.538;2023-08-20T03:15:09;22.40;60.86
69731;SHT31;56996;48.138;11.538;2023-08-20T03:17:36;22.37;60.95
69731;SHT31;56996;48.138;11.538;2023-08-20T03:20:03;22.36;61.04
69731;SHT31;56996;48.138;11.538;2023-08-20T03:22:33;22.34;61.18
69731;SHT31;56996;48.138;11.538;2023-08-20T03:25:02;22.32;61.28
69731;SHT31;56996;48.138;11.538;2023-08-20T03:27:30;22.30;61.40
69731;SHT31;56996;48.138;11.538;2023-08-20T03:29:57;22.23;61.44
69731;SHT31;56996;48.138;11.538;2023-08-20T03:32:25;22.20;61.45
69731;SHT31;56996;48.138;11.538;2023-08-20T03:34:54;22.18;61.48
69731;SHT31;56996;48.138;11.538;2023-08-20T03:37:21;22.15;61.62
69731;SHT31;56996;48.138;11.538;2023-08-20T03:39:49;22.15;61.71
69731;SHT31;56996;48.138;11.538;2023-08-20T03:42:15;22.13;61.68
69731;SHT31;56996;48.138;11.538;2023-08-20T03:44:42;22.12;61.70
69731;SHT31;56996;48.138;11.538;2023-08-20T03:47:10;22.10;61.70
69731;SHT31;56996;48.138;11.538;2023-08-20T03:49:37;22.09;61.59
69731;SHT31;56996;48.138;11.538;2023-08-20T03:52:05;22.09;61.52
69731;SHT31;56996;48.138;11.538;2023-08-20T03:54:33;22.09;61.39
69731;SHT31;56996;48.138;11.538;2023-08-20T03:57:00;22.10;61.30
69731;SHT31;56996;48.138;11.538;2023-08-20T03:59:28;22.10;61.33
69731;SHT31;56996;48.138;11.538;2023-08-20T04:01:56;22.10;61.39
69731;SHT31;56996;48.138;11.538;2023-08-20T04:04:24;22.11;61.44
69731;SHT31;56996;48.138;11.538;2023-08-20T04:06:52;22.13;61.59
69731;SHT31;56996;48.138;11.538;2023-08-20T04:09:18;22.15;61.74
69731;SHT31;56996;48.138;11.538;2023-08-20T04:11:45;22.17;61.80
69731;SHT31;56996;48.138;11.538;2023-08-20T04:14:12;22.19;61.95
69731;SHT31;56996;48.138;11.538;2023-08-20T04:16:38;22.19;61.79
69731;SHT31;56996;48.138;11.538;2023-08-20T04:19:05;22.19;61.25
69731;SHT31;56996;48.138;11.538;2023-08-20T04:21:32;22.16;61.37
69731;SHT31;56996;48.138;11.538;2023-08-20T04:23:59;22.13;61.26
69731;SHT31;56996;48.138;11.538;2023-08-20T04:26:25;22.14;61.10
69731;SHT31;56996;48.138;11.538;2023-08-20T04:28:52;22.15;60.93
69731;SHT31;56996;48.138;11.538;2023-08-20T04:31:19;22.16;61.16
69731;SHT31;56996;48.138;11.538;2023-08-20T04:33:51;22.15;60.99
69731;SHT31;56996;48.138;11.538;2023-08-20T04:36:20;22.15;60.99
69731;SHT31;56996;48.138;11.538;2023-08-20T04:38:47;22.16;61.23
69731;SHT31;56996;48.138;11.538;2023-08-20T04:41:14;22.15;61.20
69731;SHT31;56996;48.138;11.538;2023-08-20T04:43:41;22.14;61.17
69731;SHT31;56996;48.138;11.538;2023-08-20T04:46:07;22.12;61.05
69731;SHT31;56996;48.138;11.538;2023-08-20T04:48:35;22.11;61.07
69731;SHT31;56996;48.138;11.538;2023-08-20T04:51:02;22.14;61.04
69731;SHT31;56996;48.138;11.538;2023-08-20T04:53:31;22.14;61.14
69731;SHT31;56996;48.138;11.538;2023-08-20T04:55:58;22.15;61.24
69731;SHT31;56996;48.138;11.538;2023-08-20T04:58:25;22.14;61.35
69731;SHT31;56996;48.138;11.538;2023-08-20T05:00:52;22.15;61.52
69731;SHT31;56996;48.138;11.538;2023-08-20T05:03:19;22.12;61.63
69731;SHT31;56996;48.138;11.538;2023-08-20T05:05:49;22.11;61.71
69731;SHT31;56996;48.138;11.538;2023-08-20T05:08:17;22.11;61.72
69731;SHT31;56996;48.138;11.538;2023-08-20T05:10:44;22.13;61.72
69731;SHT31;56996;48.138;11.538;2023-08-20T05:13:11;22.13;61.70
69731;SHT31;56996;48.138;11.538;2023-08-20T05:15:37;22.13;61.76
69731;SHT31;56996;48.138;11.538;2023-08-20T05:18:04;22.13;61.79
69731;SHT31;56996;48.138;11.538;2023-08-20T05:20:31;22.12;61.74
69731;SHT31;56996;48.138;11.538;2023-08-20T05:22:58;22.12;61.69
69731;SHT31;56996;48.138;11.538;2023-08-20T05:25:25;22.12;61.76
69731;SHT31;56996;48.138;11.538;2023-08-20T05:27:52;22.14;61.57
69731;SHT31;56996;48.138;11.538;2023-08-20T05:30:19;22.17;61.29
69731;SHT31;56996;48.138;11.538;2023-08-20T05:32:45;22.22;61.05
69731;SHT31;56996;48.138;11.538;2023-08-20T05:35:12;22.28;60.65
69731;SHT31;56996;48.138;11.538;2023-08-20T05:37:39;22.34;60.49
69731;SHT31;56996;48.138;11.538;2023-08-20T05:40:06;22.38;60.38
69731;SHT31;56996;48.138;11.538;2023-08-20T05:42:35;22.42;60.31
69731;SHT31;56996;48.138;11.538;2023-08-20T05:45:04;22.50;60.16
69731;SHT31;56996;48.138;11.538;2023-08-20T05:47:31;22.58;59.97
69731;SHT31;56996;48.138;11.538;2023-08-20T05:49:59;22.66;59.83
69731;SHT31;56996;48.138;11.538;2023-08-20T05:52:26;22.76;59.69
69731;SHT31;56996;48.138;11.538;2023-08-20T05:54:53;22.87;59.28
69731;SHT31;56996;48.138;11.538;2023-08-20T05:57:20;23.07;58.51
69731;SHT31;56996;48.138;11.538;2023-08-20T05:59:47;24.24;56.39
69731;SHT31;56996;48.138;11.538;2023-08-20T06:02:17;26.00;52.71
69731;SHT31;56996;48.138;11.538;2023-08-20T06:04:44;27.52;49.71
69731;SHT31;56996;48.138;11.538;2023-08-20T06:07:11;28.86;47.06
69731;SHT31;56996;48.138;11.538;2023-08-20T06:09:38;29.86;45.07
69731;SHT31;56996;48.138;11.538;2023-08-20T06:12:05;30.72;43.44
69731;SHT31;56996;48.138;11.538;2023-08-20T06:14:32;31.48;41.91
69731;SHT31;56996;48.138;11.538;2023-08-20T06:16:59;32.30;40.72
69731;SHT31;56996;48.138;11.538;2023-08-20T06:19:25;33.12;39.27
69731;SHT31;56996;48.138;11.538;2023-08-20T06:21:52;33.82;37.84
69731;SHT31;56996;48.138;11.538;2023-08-20T06:24:19;34.43;36.98
69731;SHT31;56996;48.138;11.538;2023-08-20T06:26:45;35.41;35.44
69731;SHT31;56996;48.138;11.538;2023-08-20T06:29:12;36.17;34.22
69731;SHT31;56996;48.138;11.538;2023-08-20T06:31:40;36.85;33.22
69731;SHT31;56996;48.138;11.538;2023-08-20T06:34:07;37.36;32.24
69731;SHT31;56996;48.138;11.538;2023-08-20T06:36:33;37.94;31.55
69731;SHT31;56996;48.138;11.538;2023-08-20T06:39:00;38.28;30.88
69731;SHT31;56996;48.138;11.538;2023-08-20T06:41:27;38.52;30.40
69731;SHT31;56996;48.138;11.538;2023-08-20T06:43:54;38.79;29.88
69731;SHT31;56996;48.138;11.538;2023-08-20T06:46:21;38.89;29.39
69731;SHT31;56996;48.138;11.538;2023-08-20T06:48:48;39.16;29.25
69731;SHT31;56996;48.138;11.538;2023-08-20T06:51:14;39.60;28.51
69731;SHT31;56996;48.138;11.538;2023-08-20T06:53:42;39.86;27.98
69731;SHT31;56996;48.138;11.538;2023-08-20T06:56:08;40.16;27.50
69731;SHT31;56996;48.138;11.538;2023-08-20T06:58:36;40.40;27.23
69731;SHT31;56996;48.138;11.538;2023-08-20T07:01:03;40.91;26.70
69731;SHT31;56996;48.138;11.538;2023-08-20T07:03:40;40.95;26.29
69731;SHT31;56996;48.138;11.538;2023-08-20T07:06:09;40.95;26.27
69731;SHT31;56996;48.138;11.538;2023-08-20T07:08:37;41.15;25.90
69731;SHT31;56996;48.138;11.538;2023-08-20T07:11:07;40.12;25.88
69731;SHT31;56996;48.138;11.538;2023-08-20T07:13:34;37.91;27.46
69731;SHT31;56996;48.138;11.538;2023-08-20T07:16:01;36.58;28.92
69731;SHT31;56996;48.138;11.538;2023-08-20T07:18:28;35.67;29.74
69731;SHT31;56996;48.138;11.538;2023-08-20T07:20:55;35.00;30.48
69731;SHT31;56996;48.138;11.538;2023-08-20T07:23:22;34.30;31.24
69731;SHT31;56996;48.138;11.538;2023-08-20T07:25:49;33.92;31.79
69731;SHT31;56996;48.138;11.538;2023-08-20T07:28:18;33.42;32.17
69731;SHT31;56996;48.138;11.538;2023-08-20T07:31:05;32.89;32.26
69731;SHT31;56996;48.138;11.538;2023-08-20T07:33:32;32.44;32.99
69731;SHT31;56996;48.138;11.538;2023-08-20T07:35:59;32.07;33.25
69731;SHT31;56996;48.138;11.538;2023-08-20T07:38:25;31.74;33.40
69731;SHT31;56996;48.138;11.538;2023-08-20T07:40:52;31.59;33.64
69731;SHT31;56996;48.138;11.538;2023-08-20T07:43:19;31.51;33.86
69731;SHT31;56996;48.138;11.538;2023-08-20T07:45:46;31.37;34.14
69731;SHT31;56996;48.138;11.538;2023-08-20T07:48:12;31.20;34.47
69731;SHT31;56996;48.138;11.538;2023-08-20T07:50:40;31.15;34.51
69731;SHT31;56996;48.138;11.538;2023-08-20T07:53:08;31.15;34.54
69731;SHT31;56996;48.138;11.538;2023-08-20T07:55:35;31.50;34.49
69731;SHT31;56996;48.138;11.538;2023-08-20T07:58:01;32.76;33.10
69731;SHT31;56996;48.138;11.538;2023-08-20T08:00:28;34.14;31.27
69731;SHT31;56996;48.138;11.538;2023-08-20T08:02:55;34.93;29.94
69731;SHT31;56996;48.138;11.538;2023-08-20T08:05:21;35.57;29.53
69731;SHT31;56996;48.138;11.538;2023-08-20T08:07:48;36.66;28.41
69731;SHT31;56996;48.138;11.538;2023-08-20T08:10:15;37.97;26.67
69731;SHT31;56996;48.138;11.538;2023-08-20T08:12:41;38.36;25.71
69731;SHT31;56996;48.138;11.538;2023-08-20T08:15:08;38.49;24.65
69731;SHT31;56996;48.138;11.538;2023-08-20T08:17:35;38.67;25.58
69731;SHT31;56996;48.138;11.538;2023-08-20T08:20:03;39.12;24.90
69731;SHT31;56996;48.138;11.538;2023-08-20T08:22:30;39.88;24.77
69731;SHT31;56996;48.138;11.538;2023-08-20T08:24:56;40.82;23.92
69731;SHT31;56996;48.138;11.538;2023-08-20T08:27:23;41.94;23.24
69731;SHT31;56996;48.138;11.538;2023-08-20T08:29:50;43.15;22.35
69731;SHT31;56996;48.138;11.538;2023-08-20T08:32:17;43.25;20.70
69731;SHT31;56996;48.138;11.538;2023-08-20T08:34:44;42.84;20.51
69731;SHT31;56996;48.138;11.538;2023-08-20T08:37:10;42.47;20.94
69731;SHT31;56996;48.138;11.538;2023-08-20T08:39:37;42.86;21.36
69731;SHT31;56996;48.138;11.538;2023-08-20T08:42:04;43.71;21.04
69731;SHT31;56996;48.138;11.538;2023-08-20T08:44:32;44.45;20.55
69731;SHT31;56996;48.138;11.538;2023-08-20T08:47:02;45.03;20.06
69731;SHT31;56996;48.138;11.538;2023-08-20T08:49:34;45.59;19.64
69731;SHT31;56996;48.138;11.538;2023-08-20T08:52:01;45.47;18.92
69731;SHT31;56996;48.138;11.538;2023-08-20T08:54:32;45.67;19.15
69731;SHT31;56996;48.138;11.538;2023-08-20T08:57:00;46.05;18.85
69731;SHT31;56996;48.138;11.538;2023-08-20T08:59:26;46.36;18.78
69731;SHT31;56996;48.138;11.538;2023-08-20T09:01:53;46.75;18.30
69731;SHT31;56996;48.138;11.538;2023-08-20T09:04:23;46.65;18.11
69731;SHT31;56996;48.138;11.538;2023-08-20T09:06:51;46.66;17.82
69731;SHT31;56996;48.138;11.538;2023-08-20T09:09:20;46.33;18.04
69731;SHT31;56996;48.138;11.538;2023-08-20T09:11:48;46.67;17.99
69731;SHT31;56996;48.138;11.538;2023-08-20T09:14:22;46.98;17.89
69731;SHT31;56996;48.138;11.538;2023-08-20T09:17:00;47.17;17.91
69731;SHT31;56996;48.138;11.538;2023-08-20T09:19:29;47.28;17.16
69731;SHT31;56996;48.138;11.538;2023-08-20T09:21:59;46.87;17.79
69731;SHT31;56996;48.138;11.538;2023-08-20T09:24:26;47.42;17.69
69731;SHT31;56996;48.138;11.538;2023-08-20T09:27:13;47.84;17.22
69731;SHT31;56996;48.138;11.538;2023-08-20T09:29:48;48.13;17.22
69731;SHT31;56996;48.138;11.538;2023-08-20T09:32:21;47.83;17.16
69731;SHT31;56996;48.138;11.538;2023-08-20T09:34:50;47.82;17.34
69731;SHT31;56996;48.138;11.538;2023-08-20T09:37:20;48.06;17.32
69731;SHT31;56996;48.138;11.538;2023-08-20T09:39:49;48.31;17.02
69731;SHT31;56996;48.138;11.538;2023-08-20T09:42:16;48.29;17.17
69731;SHT31;56996;48.138;11.538;2023-08-20T09:44:44;48.65;17.04
69731;SHT31;56996;48.138;11.538;2023-08-20T09:47:17;48.74;16.79
69731;SHT31;56996;48.138;11.538;2023-08-20T09:49:48;48.47;16.67
69731;SHT31;56996;48.138;11.538;2023-08-20T09:52:21;48.16;16.93
69731;SHT31;56996;48.138;11.538;2023-08-20T09:55:07;48.15;16.84
69731;SHT31;56996;48.138;11.538;2023-08-20T09:57:39;47.94;16.93
69731;SHT31;56996;48.138;11.538;2023-08-20T10:00:11;47.60;16.90
69731;SHT31;56996;48.138;11.538;2023-08-20T10:02:40;46.94;17.08
69731;SHT31;56996;48.138;11.538;2023-08-20T10:05:09;46.33;17.15
69731;SHT31;56996;48.138;11.538;2023-08-20T10:07:39;45.54;17.36
69731;SHT31;56996;48.138;11.538;2023-08-20T10:10:07;44.97;17.62
69731;SHT31;56996;48.138;11.538;2023-08-20T10:12:36;44.26;17.72
69731;SHT31;56996;48.138;11.538;2023-08-20T10:15:07;43.53;17.86
69731;SHT31;56996;48.138;11.538;2023-08-20T10:17:36;42.81;18.26
69731;SHT31;56996;48.138;11.538;2023-08-20T10:20:06;42.28;18.20
69731;SHT31;56996;48.138;11.538;2023-08-20T10:22:37;41.65;17.90
69731;SHT31;56996;48.138;11.538;2023-08-20T10:25:07;41.08;18.70
69731;SHT31;56996;48.138;11.538;2023-08-20T10:27:40;40.69;19.54
69731;SHT31;56996;48.138;11.538;2023-08-20T10:30:16;40.33;20.10
69731;SHT31;56996;48.138;11.538;2023-08-20T10:32:53;40.03;20.27
69731;SHT31;56996;48.138;11.538;2023-08-20T10:36:06;39.74;20.50
69731;SHT31;56996;48.138;11.538;2023-08-20T10:38:14;39.24;21.68
69731;SHT31;56996;48.138;11.538;2023-08-20T10:40:49;38.79;22.21
69731;SHT31;56996;48.138;11.538;2023-08-20T10:43:33;38.50;22.60
69731;SHT31;56996;48.138;11.538;2023-08-20T10:48:48;38.00;23.15
69731;SHT31;56996;48.138;11.538;2023-08-20T10:51:24;37.82;23.61
69731;SHT31;56996;48.138;11.538;2023-08-20T10:59:17;37.25;24.60
69731;SHT31;56996;48.138;11.538;2023-08-20T11:01:48;37.08;25.11
69731;SHT31;56996;48.138;11.538;2023-08-20T11:04:21;37.00;25.09
69731;SHT31;56996;48.138;11.538;2023-08-20T11:06:57;36.85;25.10
69731;SHT31;56996;48.138;11.538;2023-08-20T11:09:28;36.74;25.18
69731;SHT31;56996;48.138;11.538;2023-08-20T11:11:58;36.79;25.28
69731;SHT31;56996;48.138;11.538;2023-08-20T11:14:25;36.70;25.41
69731;SHT31;56996;48.138;11.538;2023-08-20T11:16:53;36.54;25.41
69731;SHT31;56996;48.138;11.538;2023-08-20T11:19:22;36.47;25.39
69731;SHT31;56996;48.138;11.538;2023-08-20T11:21:50;36.47;25.42
69731;SHT31;56996;48.138;11.538;2023-08-20T11:24:18;36.42;25.30
69731;SHT31;56996;48.138;11.538;2023-08-20T11:26:46;36.32;25.28
69731;SHT31;56996;48.138;11.538;2023-08-20T11:29:13;36.21;25.46
69731;SHT31;56996;48.138;11.538;2023-08-20T11:31:48;36.07;25.51
69731;SHT31;56996;48.138;11.538;2023-08-20T11:34:16;36.00;25.62
69731;SHT31;56996;48.138;11.538;2023-08-20T11:36:45;35.96;25.41
69731;SHT31;56996;48.138;11.538;2023-08-20T11:39:12;35.89;25.34
69731;SHT31;56996;48.138;11.538;2023-08-20T11:41:39;35.85;25.32
69731;SHT31;56996;48.138;11.538;2023-08-20T11:44:10;35.71;25.51
69731;SHT31;56996;48.138;11.538;2023-08-20T11:46:43;35.61;25.60
69731;SHT31;56996;48.138;11.538;2023-08-20T11:49:11;35.59;25.50
69731;SHT31;56996;48.138;11.538;2023-08-20T11:54:15;35.55;25.43
69731;SHT31;56996;48.138;11.538;2023-08-20T11:56:45;35.61;25.37
69731;SHT31;56996;48.138;11.538;2023-08-20T11:59:13;35.63;25.28
69731;SHT31;56996;48.138;11.538;2023-08-20T12:01:41;35.65;25.24
69731;SHT31;56996;48.138;11.538;2023-08-20T12:04:09;35.70;25.10
69731;SHT31;56996;48.138;11.538;2023-08-20T12:06:39;35.62;25.17
69731;SHT31;56996;48.138;11.538;2023-08-20T12:09:18;35.63;25.17
69731;SHT31;56996;48.138;11.538;2023-08-20T12:11:49;35.67;25.13
69731;SHT31;56996;48.138;11.538;2023-08-20T12:14:18;35.66;25.17
69731;SHT31;56996;48.138;11.538;2023-08-20T12:16:46;35.74;25.20
69731;SHT31;56996;48.138;11.538;2023-08-20T12:19:14;35.76;25.02
69731;SHT31;56996;48.138;11.538;2023-08-20T12:21:43;35.75;24.86
69731;SHT31;56996;48.138;11.538;2023-08-20T12:24:10;35.66;24.89
69731;SHT31;56996;48.138;11.538;2023-08-20T12:26:37;35.51;24.99
69731;SHT31;56996;48.138;11.538;2023-08-20T12:29:06;35.44;25.29
69731;SHT31;56996;48.138;11.538;2023-08-20T12:31:34;35.47;25.20
69731;SHT31;56996;48.138;11.538;2023-08-20T12:34:02;35.45;25.28
69731;SHT31;56996;48.138;11.538;2023-08-20T12:36:29;35.45;25.22
69731;SHT31;56996;48.138;11.538;2023-08-20T12:38:56;35.44;24.95
69731;SHT31;56996;48.138;11.538;2023-08-20T12:41:23;35.41;25.08
69731;SHT31;56996;48.138;11.538;2023-08-20T12:43:50;35.45;25.15
69731;SHT31;56996;48.138;11.538;2023-08-20T12:46:17;35.44;25.39
69731;SHT31;56996;48.138;11.538;2023-08-20T12:48:45;35.42;25.66
69731;SHT31;56996;48.138;11.538;2023-08-20T12:51:12;35.40;25.70
69731;SHT31;56996;48.138;11.538;2023-08-20T12:53:40;35.31;25.74
69731;SHT31;56996;48.138;11.538;2023-08-20T12:56:07;35.30;25.92
69731;SHT31;56996;48.138;11.538;2023-08-20T12:58:34;35.34;25.88
69731;SHT31;56996;48.138;11.538;2023-08-20T13:01:00;35.29;25.82
69731;SHT31;56996;48.138;11.538;2023-08-20T13:03:27;35.33;25.56
69731;SHT31;56996;48.138;11.538;2023-08-20T13:05:55;35.31;25.49
69731;SHT31;56996;48.138;11.538;2023-08-20T13:08:25;35.26;25.73
69731;SHT31;56996;48.138;11.538;2023-08-20T13:10:54;35.24;25.61
69731;SHT31;56996;48.138;11.538;2023-08-20T13:13:22;35.24;25.56
69731;SHT31;56996;48.138;11.538;2023-08-20T13:15:51;35.28;25.62
69731;SHT31;56996;48.138;11.538;2023-08-20T13:18:20;35.32;25.63
69731;SHT31;56996;48.138;11.538;2023-08-20T13:20:52;35.35;25.60
69731;SHT31;56996;48.138;11.538;2023-08-20T13:23:19;35.31;25.67
69731;SHT31;56996;48.138;11.538;2023-08-20T13:25:46;35.33;25.35
69731;SHT31;56996;48.138;11.538;2023-08-20T13:28:13;35.37;25.07
69731;SHT31;56996;48.138;11.538;2023-08-20T13:30:41;35.36;25.06
69731;SHT31;56996;48.138;11.538;2023-08-20T13:33:07;35.42;25.10
69731;SHT31;56996;48.138;11.538;2023-08-20T13:35:34;35.48;25.24
69731;SHT31;56996;48.138;11.538;2023-08-20T13:38:01;35.49;25.39
69731;SHT31;56996;48.138;11.538;2023-08-20T13:40:29;35.44;25.86
69731;SHT31;56996;48.138;11.538;2023-08-20T13:42:56;35.43;25.89
69731;SHT31;56996;48.138;11.538;2023-08-20T13:45:23;35.42;26.27
69731;SHT31;56996;48.138;11.538;2023-08-20T13:47:50;35.44;26.39
69731;SHT31;56996;48.138;11.538;2023-08-20T13:50:16;35.48;26.60
69731;SHT31;56996;48.138;11.538;2023-08-20T13:52:43;35.53;26.70
69731;SHT31;56996;48.138;11.538;2023-08-20T13:55:10;35.51;26.65
69731;SHT31;56996;48.138;11.538;2023-08-20T13:57:37;35.57;26.59
69731;SHT31;56996;48.138;11.538;2023-08-20T14:00:04;35.55;27.01
69731;SHT31;56996;48.138;11.538;2023-08-20T14:02:38;35.56;26.39
69731;SHT31;56996;48.138;11.538;2023-08-20T14:05:06;35.52;26.27
69731;SHT31;56996;48.138;11.538;2023-08-20T14:07:33;35.44;26.55
69731;SHT31;56996;48.138;11.538;2023-08-20T14:10:03;35.44;26.58
69731;SHT31;56996;48.138;11.538;2023-08-20T14:12:31;35.52;26.57
69731;SHT31;56996;48.138;11.538;2023-08-20T14:14:58;35.56;26.29
69731;SHT31;56996;48.138;11.538;2023-08-20T14:17:27;35.61;26.26
69731;SHT31;56996;48.138;11.538;2023-08-20T14:19:54;35.62;26.91
69731;SHT31;56996;48.138;11.538;2023-08-20T14:22:21;35.61;27.39
69731;SHT31;56996;48.138;11.538;2023-08-20T14:24:47;35.47;27.44
69731;SHT31;56996;48.138;11.538;2023-08-20T14:27:14;35.35;27.37
69731;SHT31;56996;48.138;11.538;2023-08-20T14:29:41;35.37;27.63
69731;SHT31;56996;48.138;11.538;2023-08-20T14:32:08;35.44;27.81
69731;SHT31;56996;48.138;11.538;2023-08-20T14:34:35;35.44;27.61
69731;SHT31;56996;48.138;11.538;2023-08-20T14:37:02;35.35;27.21
69731;SHT31;56996;48.138;11.538;2023-08-20T14:39:31;35.32;27.50
69731;SHT31;56996;48.138;11.538;2023-08-20T14:41:59;35.30;28.22
69731;SHT31;56996;48.138;11.538;2023-08-20T14:44:26;35.32;27.77
69731;SHT31;56996;48.138;11.538;2023-08-20T14:46:53;35.32;27.46
69731;SHT31;56996;48.138;11.538;2023-08-20T14:49:20;35.29;27.50
69731;SHT31;56996;48.138;11.538;2023-08-20T14:51:48;35.26;27.65
69731;SHT31;56996;48.138;11.538;2023-08-20T14:54:15;35.21;28.17
69731;SHT31;56996;48.138;11.538;2023-08-20T14:56:41;35.17;28.66
69731;SHT31;56996;48.138;11.538;2023-08-20T14:59:08;35.14;28.77
69731;SHT31;56996;48.138;11.538;2023-08-20T15:01:36;35.05;28.89
69731;SHT31;56996;48.138;11.538;2023-08-20T15:04:03;34.96;28.67
69731;SHT31;56996;48.138;11.538;2023-08-20T15:06:30;35.03;28.47
69731;SHT31;56996;48.138;11.538;2023-08-20T15:08:57;35.43;28.21
69731;SHT31;56996;48.138;11.538;2023-08-20T15:11:24;35.57;28.03
69731;SHT31;56996;48.138;11.538;2023-08-20T15:13:51;35.53;28.04
69731;SHT31;56996;48.138;11.538;2023-08-20T15:16:18;35.39;28.14
69731;SHT31;56996;48.138;11.538;2023-08-20T15:18:45;35.30;28.32
69731;SHT31;56996;48.138;11.538;2023-08-20T15:21:11;35.15;28.46
69731;SHT31;56996;48.138;11.538;2023-08-20T15:23:39;35.01;28.66
69731;SHT31;56996;48.138;11.538;2023-08-20T15:26:05;34.95;28.80
69731;SHT31;56996;48.138;11.538;2023-08-20T15:28:32;34.90;28.31
69731;SHT31;56996;48.138;11.538;2023-08-20T15:30:59;34.85;28.31
69731;SHT31;56996;48.138;11.538;2023-08-20T15:33:27;34.77;28.37
69731;SHT31;56996;48.138;11.538;2023-08-20T15:35:56;34.72;28.47
69731;SHT31;56996;48.138;11.538;2023-08-20T15:38:25;34.62;28.59
69731;SHT31;56996;48.138;11.538;2023-08-20T15:40:53;34.52;28.70